Погода Сарайна неделю

Скопье, Македония

17 - 23 июля
  • 17июля
    Сегодня
    +23°
    +41°
    Ясно и безоблачно
    ВремяПогодаТемператураВлажностьДавлениеВетер, м/сВероятность осадков
    02:00Ясно и безоблачно+23°C49 %736 мм1.6 м/с2 %
    05:00Ясно и безоблачно+21°C47 %736 мм0.7 м/с2 %
    08:00Ясно и безоблачно+26°C36 %738 мм0.7 м/с2 %
    11:00Ясно и безоблачно+34°C28 %738 мм0.6 м/с2 %
    14:00Ясно и безоблачно+39°C20 %737 мм2.0 м/с2 %
    17:00Небольшая облачность+40°C18 %737 мм2.3 м/с2 %
    20:00Практически безоблачно+35°C32 %737 мм0.5 м/с2 %
    23:00Ясно и безоблачно+28°C62 %738 мм1.7 м/с2 %
  • 18июля
    Четверг
    +22°
    +40°
    Облачно с прояснениями
    ВремяПогодаТемператураВлажностьДавлениеВетер, м/сВероятность осадков
    02:00Ясно и безоблачно+25°C69 %738 мм1.4 м/с2 %
    05:00Ясно и безоблачно+23°C70 %739 мм1.4 м/с2 %
    08:00Ясно и безоблачно+28°C48 %740 мм1.5 м/с2 %
    11:00Практически безоблачно+35°C36 %739 мм0.6 м/с2 %
    14:00Облачно с прояснениями+39°C30 %739 мм1.9 м/с21 %
    17:00Небольшая облачность+37°C43 %739 мм0.5 м/с37 %
    20:00Небольшая облачность+32°C47 %739 мм0.7 м/с4 %
    23:00Ясно и безоблачно+27°C62 %739 мм1.5 м/с2 %
  • 19июля
    Пятница
    +21°
    +39°
    Ясно и безоблачно
    ВремяПогодаТемператураВлажностьДавлениеВетер, м/сВероятность осадков
    02:00Ясно и безоблачно+25°C74 %739 мм1.4 м/с2 %
    05:00Ясно и безоблачно+23°C80 %739 мм1.3 м/с2 %
    08:00Ясно и безоблачно+27°C57 %739 мм1.5 м/с2 %
    11:00Ясно и безоблачно+34°C43 %739 мм0.5 м/с2 %
    14:00Ясно и безоблачно+38°C35 %737 мм0.9 м/с9 %
    17:00Небольшая облачность, возможен дождь с грозой+36°C41 %737 мм2.4 м/с38 %
    20:00Ясно и безоблачно+31°C54 %737 мм1.4 м/с14 %
    23:00Ясно и безоблачно+26°C70 %737 мм1.2 м/с2 %
  • 20июля
    Суббота
    +20°
    +37°
    Ясно и безоблачно
    ВремяПогодаТемператураВлажностьДавлениеВетер, м/сВероятность осадков
    02:00Ясно и безоблачно+24°C80 %736 мм1.1 м/с2 %
    05:00Ясно и безоблачно+22°C84 %735 мм1.2 м/с2 %
    08:00Ясно и безоблачно+27°C58 %736 мм1.1 м/с2 %
    11:00Ясно и безоблачно+33°C43 %735 мм0.5 м/с2 %
    14:00Ясно и безоблачно+36°C32 %733 мм0.5 м/с14 %
    17:00Небольшая облачность, возможен дождь с грозой+32°C42 %734 мм2.0 м/с48 %
    20:00Ясно и безоблачно+30°C64 %734 мм0.9 м/с45 %
    23:00Ясно и безоблачно+25°C77 %734 мм0.8 м/с8 %
  • 21июля
    Воскресенье
    +21°
    +36°
    Ясно и безоблачно
    ВремяПогодаТемператураВлажностьДавлениеВетер, м/сВероятность осадков
    02:00Ясно и безоблачно+23°C78 %733 мм0.7 м/с3 %
    05:00Ясно и безоблачно+21°C76 %733 мм0.6 м/с2 %
    08:00Ясно и безоблачно+25°C62 %734 мм0.3 м/с3 %
    11:00Ясно и безоблачно+30°C45 %734 мм0.3 м/с4 %
    14:00Ясно и безоблачно+35°C34 %733 мм1.3 м/с5 %
    17:00Ясно и безоблачно+35°C31 %732 мм1.5 м/с19 %
    20:00Ясно и безоблачно+32°C38 %732 мм1.8 м/с7 %
    23:00Ясно и безоблачно+27°C52 %734 мм0.9 м/с2 %
Мы используем cookies
Соглашаюсь